sensor_id;sensor_type;location;lat;lon;timestamp;P1;durP1;ratioP1;P2;durP2;ratioP2
44366;SDS011;30086;57.660;12.000;2023-09-30T00:01:11;24.08;;;5.10;;
44366;SDS011;30086;57.660;12.000;2023-09-30T00:03:39;20.83;;;4.05;;
44366;SDS011;30086;57.660;12.000;2023-09-30T00:06:07;27.50;;;5.07;;
44366;SDS011;30086;57.660;12.000;2023-09-30T00:08:33;25.90;;;5.38;;
44366;SDS011;30086;57.660;12.000;2023-09-30T00:11:02;29.38;;;5.00;;
44366;SDS011;30086;57.660;12.000;2023-09-30T00:13:29;24.90;;;5.80;;
44366;SDS011;30086;57.660;12.000;2023-09-30T00:15:56;29.95;;;5.05;;
44366;SDS011;30086;57.660;12.000;2023-09-30T00:18:23;35.83;;;6.07;;
44366;SDS011;30086;57.660;12.000;2023-09-30T00:20:49;29.40;;;5.22;;
44366;SDS011;30086;57.660;12.000;2023-09-30T00:23:16;25.88;;;5.50;;
44366;SDS011;30086;57.660;12.000;2023-09-30T00:25:43;16.35;;;2.88;;
44366;SDS011;30086;57.660;12.000;2023-09-30T00:28:11;29.08;;;7.15;;
44366;SDS011;30086;57.660;12.000;2023-09-30T00:30:37;26.98;;;5.65;;
44366;SDS011;30086;57.660;12.000;2023-09-30T00:33:03;28.13;;;4.80;;
44366;SDS011;30086;57.660;12.000;2023-09-30T00:35:31;31.33;;;6.07;;
44366;SDS011;30086;57.660;12.000;2023-09-30T00:37:57;32.55;;;5.45;;
44366;SDS011;30086;57.660;12.000;2023-09-30T00:40:23;28.35;;;5.60;;
44366;SDS011;30086;57.660;12.000;2023-09-30T00:42:49;28.60;;;4.72;;
44366;SDS011;30086;57.660;12.000;2023-09-30T00:45:16;24.70;;;5.32;;
44366;SDS011;30086;57.660;12.000;2023-09-30T00:47:42;37.00;;;6.68;;
44366;SDS011;30086;57.660;12.000;2023-09-30T00:50:08;25.95;;;6.18;;
44366;SDS011;30086;57.660;12.000;2023-09-30T00:52:38;30.42;;;5.60;;
44366;SDS011;30086;57.660;12.000;2023-09-30T00:55:04;19.13;;;4.32;;
44366;SDS011;30086;57.660;12.000;2023-09-30T00:57:31;40.80;;;6.68;;
44366;SDS011;30086;57.660;12.000;2023-09-30T00:59:57;25.98;;;6.05;;
44366;SDS011;30086;57.660;12.000;2023-09-30T01:02:24;25.10;;;4.45;;
44366;SDS011;30086;57.660;12.000;2023-09-30T01:04:50;17.10;;;3.97;;
44366;SDS011;30086;57.660;12.000;2023-09-30T01:07:16;33.00;;;6.25;;
44366;SDS011;30086;57.660;12.000;2023-09-30T01:09:43;26.25;;;5.45;;
44366;SDS011;30086;57.660;12.000;2023-09-30T01:12:09;30.40;;;5.68;;
44366;SDS011;30086;57.660;12.000;2023-09-30T01:14:36;29.27;;;5.18;;
44366;SDS011;30086;57.660;12.000;2023-09-30T01:17:03;26.27;;;5.07;;
44366;SDS011;30086;57.660;12.000;2023-09-30T01:19:34;28.27;;;5.25;;
44366;SDS011;30086;57.660;12.000;2023-09-30T01:22:00;28.88;;;5.05;;
44366;SDS011;30086;57.660;12.000;2023-09-30T01:24:29;29.05;;;5.72;;
44366;SDS011;30086;57.660;12.000;2023-09-30T01:26:56;27.15;;;5.68;;
44366;SDS011;30086;57.660;12.000;2023-09-30T01:29:22;27.13;;;4.97;;
44366;SDS011;30086;57.660;12.000;2023-09-30T01:31:50;29.20;;;5.88;;
44366;SDS011;30086;57.660;12.000;2023-09-30T01:34:17;27.10;;;4.90;;
44366;SDS011;30086;57.660;12.000;2023-09-30T01:36:43;34.00;;;6.25;;
44366;SDS011;30086;57.660;12.000;2023-09-30T01:39:10;35.33;;;6.28;;
44366;SDS011;30086;57.660;12.000;2023-09-30T01:41:40;34.75;;;5.38;;
44366;SDS011;30086;57.660;12.000;2023-09-30T01:44:07;22.60;;;4.07;;
44366;SDS011;30086;57.660;12.000;2023-09-30T01:46:34;35.58;;;5.15;;
44366;SDS011;30086;57.660;12.000;2023-09-30T01:49:01;29.13;;;4.95;;
44366;SDS011;30086;57.660;12.000;2023-09-30T01:51:28;28.85;;;5.72;;
44366;SDS011;30086;57.660;12.000;2023-09-30T01:53:55;34.08;;;6.32;;
44366;SDS011;30086;57.660;12.000;2023-09-30T01:56:21;33.63;;;6.05;;
44366;SDS011;30086;57.660;12.000;2023-09-30T01:58:47;31.95;;;6.72;;
44366;SDS011;30086;57.660;12.000;2023-09-30T02:01:13;26.65;;;6.05;;
44366;SDS011;30086;57.660;12.000;2023-09-30T02:03:40;38.45;;;5.82;;
44366;SDS011;30086;57.660;12.000;2023-09-30T02:06:07;33.00;;;5.75;;
44366;SDS011;30086;57.660;12.000;2023-09-30T02:08:33;39.15;;;6.70;;
44366;SDS011;30086;57.660;12.000;2023-09-30T02:11:01;35.90;;;5.05;;
44366;SDS011;30086;57.660;12.000;2023-09-30T02:13:29;26.27;;;5.20;;
44366;SDS011;30086;57.660;12.000;2023-09-30T02:15:55;29.45;;;5.10;;
44366;SDS011;30086;57.660;12.000;2023-09-30T02:18:21;30.05;;;5.55;;
44366;SDS011;30086;57.660;12.000;2023-09-30T02:20:48;29.38;;;4.47;;
44366;SDS011;30086;57.660;12.000;2023-09-30T02:23:15;36.85;;;6.72;;
44366;SDS011;30086;57.660;12.000;2023-09-30T02:25:42;29.83;;;7.30;;
44366;SDS011;30086;57.660;12.000;2023-09-30T02:28:08;32.60;;;6.65;;
44366;SDS011;30086;57.660;12.000;2023-09-30T02:30:35;37.28;;;5.88;;
44366;SDS011;30086;57.660;12.000;2023-09-30T02:33:01;34.00;;;5.95;;
44366;SDS011;30086;57.660;12.000;2023-09-30T02:35:29;34.85;;;7.35;;
44366;SDS011;30086;57.660;12.000;2023-09-30T02:37:55;33.00;;;6.18;;
44366;SDS011;30086;57.660;12.000;2023-09-30T02:40:22;26.75;;;3.83;;
44366;SDS011;30086;57.660;12.000;2023-09-30T02:42:49;37.88;;;5.53;;
44366;SDS011;30086;57.660;12.000;2023-09-30T02:45:16;34.15;;;7.45;;
44366;SDS011;30086;57.660;12.000;2023-09-30T02:47:42;33.20;;;7.10;;
44366;SDS011;30086;57.660;12.000;2023-09-30T02:50:09;37.63;;;6.85;;
44366;SDS011;30086;57.660;12.000;2023-09-30T02:52:41;35.67;;;6.22;;
44366;SDS011;30086;57.660;12.000;2023-09-30T02:55:08;37.10;;;6.82;;
44366;SDS011;30086;57.660;12.000;2023-09-30T02:57:34;33.03;;;6.85;;
44366;SDS011;30086;57.660;12.000;2023-09-30T03:00:08;36.63;;;7.32;;
44366;SDS011;30086;57.660;12.000;2023-09-30T03:02:48;23.38;;;5.32;;
44366;SDS011;30086;57.660;12.000;2023-09-30T03:05:14;25.83;;;5.60;;
44366;SDS011;30086;57.660;12.000;2023-09-30T03:07:41;30.70;;;5.97;;
44366;SDS011;30086;57.660;12.000;2023-09-30T03:10:07;21.58;;;3.65;;
44366;SDS011;30086;57.660;12.000;2023-09-30T03:12:34;33.47;;;6.43;;
44366;SDS011;30086;57.660;12.000;2023-09-30T03:15:00;30.33;;;5.25;;
44366;SDS011;30086;57.660;12.000;2023-09-30T03:17:32;22.50;;;2.75;;
44366;SDS011;30086;57.660;12.000;2023-09-30T03:19:59;27.67;;;3.65;;
44366;SDS011;30086;57.660;12.000;2023-09-30T03:22:26;40.17;;;6.38;;
44366;SDS011;30086;57.660;12.000;2023-09-30T03:24:54;31.70;;;5.35;;
44366;SDS011;30086;57.660;12.000;2023-09-30T03:27:22;34.28;;;6.03;;
44366;SDS011;30086;57.660;12.000;2023-09-30T03:29:48;32.05;;;6.07;;
44366;SDS011;30086;57.660;12.000;2023-09-30T03:32:15;36.45;;;6.40;;
44366;SDS011;30086;57.660;12.000;2023-09-30T03:34:41;31.88;;;6.22;;
44366;SDS011;30086;57.660;12.000;2023-09-30T03:37:10;44.17;;;5.47;;
44366;SDS011;30086;57.660;12.000;2023-09-30T03:39:36;28.95;;;5.90;;
44366;SDS011;30086;57.660;12.000;2023-09-30T03:42:02;28.58;;;3.83;;
44366;SDS011;30086;57.660;12.000;2023-09-30T03:44:28;21.35;;;5.47;;
44366;SDS011;30086;57.660;12.000;2023-09-30T03:46:54;37.50;;;7.05;;
44366;SDS011;30086;57.660;12.000;2023-09-30T03:49:24;27.15;;;5.32;;
44366;SDS011;30086;57.660;12.000;2023-09-30T03:51:51;18.63;;;3.58;;
44366;SDS011;30086;57.660;12.000;2023-09-30T03:54:18;33.05;;;6.68;;
44366;SDS011;30086;57.660;12.000;2023-09-30T03:56:45;26.73;;;5.78;;
44366;SDS011;30086;57.660;12.000;2023-09-30T03:59:14;25.23;;;4.80;;
44366;SDS011;30086;57.660;12.000;2023-09-30T04:01:41;20.23;;;3.85;;
44366;SDS011;30086;57.660;12.000;2023-09-30T04:04:07;37.67;;;7.53;;
44366;SDS011;30086;57.660;12.000;2023-09-30T04:06:36;26.45;;;6.63;;
44366;SDS011;30086;57.660;12.000;2023-09-30T04:09:05;32.38;;;5.85;;
44366;SDS011;30086;57.660;12.000;2023-09-30T04:11:38;30.90;;;5.40;;
44366;SDS011;30086;57.660;12.000;2023-09-30T04:14:05;24.27;;;4.47;;
44366;SDS011;30086;57.660;12.000;2023-09-30T04:16:31;29.48;;;6.93;;
44366;SDS011;30086;57.660;12.000;2023-09-30T04:18:57;31.35;;;6.43;;
44366;SDS011;30086;57.660;12.000;2023-09-30T04:21:24;32.70;;;6.47;;
44366;SDS011;30086;57.660;12.000;2023-09-30T04:23:51;42.38;;;6.25;;
44366;SDS011;30086;57.660;12.000;2023-09-30T04:26:18;28.75;;;5.43;;
44366;SDS011;30086;57.660;12.000;2023-09-30T04:28:44;31.77;;;6.00;;
44366;SDS011;30086;57.660;12.000;2023-09-30T04:31:10;31.27;;;6.50;;
44366;SDS011;30086;57.660;12.000;2023-09-30T04:33:37;24.67;;;4.63;;
44366;SDS011;30086;57.660;12.000;2023-09-30T04:36:08;23.45;;;6.47;;
44366;SDS011;30086;57.660;12.000;2023-09-30T04:38:35;21.08;;;4.85;;
44366;SDS011;30086;57.660;12.000;2023-09-30T04:41:04;30.23;;;5.60;;
44366;SDS011;30086;57.660;12.000;2023-09-30T04:43:32;29.45;;;5.30;;
44366;SDS011;30086;57.660;12.000;2023-09-30T04:45:59;22.20;;;4.75;;
44366;SDS011;30086;57.660;12.000;2023-09-30T04:48:25;30.17;;;5.43;;
44366;SDS011;30086;57.660;12.000;2023-09-30T04:50:51;21.17;;;3.63;;
44366;SDS011;30086;57.660;12.000;2023-09-30T04:53:17;21.67;;;4.47;;
44366;SDS011;30086;57.660;12.000;2023-09-30T04:55:46;32.78;;;6.57;;
44366;SDS011;30086;57.660;12.000;2023-09-30T04:58:16;27.48;;;5.20;;
44366;SDS011;30086;57.660;12.000;2023-09-30T05:00:42;25.42;;;5.75;;
44366;SDS011;30086;57.660;12.000;2023-09-30T05:03:08;33.20;;;6.60;;
44366;SDS011;30086;57.660;12.000;2023-09-30T05:05:34;40.63;;;7.45;;
44366;SDS011;30086;57.660;12.000;2023-09-30T05:08:00;24.55;;;4.75;;
44366;SDS011;30086;57.660;12.000;2023-09-30T05:10:26;20.80;;;3.10;;
44366;SDS011;30086;57.660;12.000;2023-09-30T05:12:53;22.27;;;4.47;;
44366;SDS011;30086;57.660;12.000;2023-09-30T05:15:19;29.85;;;3.85;;
44366;SDS011;30086;57.660;12.000;2023-09-30T05:17:46;29.42;;;5.20;;
44366;SDS011;30086;57.660;12.000;2023-09-30T05:20:12;31.35;;;4.43;;
44366;SDS011;30086;57.660;12.000;2023-09-30T05:22:39;29.58;;;5.80;;
44366;SDS011;30086;57.660;12.000;2023-09-30T05:25:10;21.98;;;4.40;;
44366;SDS011;30086;57.660;12.000;2023-09-30T05:27:37;31.15;;;7.07;;
44366;SDS011;30086;57.660;12.000;2023-09-30T05:30:03;28.27;;;5.45;;
44366;SDS011;30086;57.660;12.000;2023-09-30T05:32:31;23.67;;;4.68;;
44366;SDS011;30086;57.660;12.000;2023-09-30T05:34:57;24.52;;;4.93;;
44366;SDS011;30086;57.660;12.000;2023-09-30T05:37:23;21.98;;;5.93;;
44366;SDS011;30086;57.660;12.000;2023-09-30T05:39:49;15.55;;;2.22;;
44366;SDS011;30086;57.660;12.000;2023-09-30T05:42:16;26.25;;;5.68;;
44366;SDS011;30086;57.660;12.000;2023-09-30T05:44:43;30.90;;;4.57;;
44366;SDS011;30086;57.660;12.000;2023-09-30T05:47:10;31.85;;;5.35;;
44366;SDS011;30086;57.660;12.000;2023-09-30T05:49:37;9.35;;;1.98;;
44366;SDS011;30086;57.660;12.000;2023-09-30T05:52:04;28.65;;;4.88;;
44366;SDS011;30086;57.660;12.000;2023-09-30T05:54:30;29.30;;;4.35;;
44366;SDS011;30086;57.660;12.000;2023-09-30T05:56:56;35.35;;;5.30;;
44366;SDS011;30086;57.660;12.000;2023-09-30T05:59:22;30.02;;;5.25;;
44366;SDS011;30086;57.660;12.000;2023-09-30T06:01:50;13.18;;;2.35;;
44366;SDS011;30086;57.660;12.000;2023-09-30T06:04:16;19.67;;;4.18;;
44366;SDS011;30086;57.660;12.000;2023-09-30T06:06:42;17.42;;;2.78;;
44366;SDS011;30086;57.660;12.000;2023-09-30T06:09:09;20.00;;;3.13;;
44366;SDS011;30086;57.660;12.000;2023-09-30T06:11:35;24.98;;;4.70;;
44366;SDS011;30086;57.660;12.000;2023-09-30T06:14:01;28.58;;;4.00;;
44366;SDS011;30086;57.660;12.000;2023-09-30T06:16:27;23.83;;;4.22;;
44366;SDS011;30086;57.660;12.000;2023-09-30T06:18:57;20.55;;;3.45;;
44366;SDS011;30086;57.660;12.000;2023-09-30T06:21:24;14.88;;;1.85;;
44366;SDS011;30086;57.660;12.000;2023-09-30T06:23:54;15.00;;;2.97;;
44366;SDS011;30086;57.660;12.000;2023-09-30T06:26:20;7.22;;;1.25;;
44366;SDS011;30086;57.660;12.000;2023-09-30T06:28:46;11.70;;;2.00;;
44366;SDS011;30086;57.660;12.000;2023-09-30T06:31:13;17.05;;;2.88;;
44366;SDS011;30086;57.660;12.000;2023-09-30T06:33:40;9.38;;;1.83;;
44366;SDS011;30086;57.660;12.000;2023-09-30T06:36:31;17.27;;;3.05;;
44366;SDS011;30086;57.660;12.000;2023-09-30T06:38:58;17.30;;;4.00;;
44366;SDS011;30086;57.660;12.000;2023-09-30T06:41:24;14.27;;;2.42;;
44366;SDS011;30086;57.660;12.000;2023-09-30T06:43:50;12.82;;;3.15;;
44366;SDS011;30086;57.660;12.000;2023-09-30T06:46:22;19.33;;;3.47;;
44366;SDS011;30086;57.660;12.000;2023-09-30T06:48:57;20.05;;;2.72;;
44366;SDS011;30086;57.660;12.000;2023-09-30T06:51:26;14.60;;;3.42;;
44366;SDS011;30086;57.660;12.000;2023-09-30T06:53:53;16.33;;;1.70;;
44366;SDS011;30086;57.660;12.000;2023-09-30T06:56:21;12.27;;;2.90;;
44366;SDS011;30086;57.660;12.000;2023-09-30T06:58:47;12.93;;;2.35;;
44366;SDS011;30086;57.660;12.000;2023-09-30T07:01:17;5.47;;;1.65;;
44366;SDS011;30086;57.660;12.000;2023-09-30T07:03:52;15.45;;;2.58;;
44366;SDS011;30086;57.660;12.000;2023-09-30T07:06:26;15.38;;;2.45;;
44366;SDS011;30086;57.660;12.000;2023-09-30T07:08:53;13.88;;;2.78;;
44366;SDS011;30086;57.660;12.000;2023-09-30T07:11:28;16.90;;;2.55;;
44366;SDS011;30086;57.660;12.000;2023-09-30T07:13:55;14.02;;;1.85;;
44366;SDS011;30086;57.660;12.000;2023-09-30T07:16:22;10.98;;;2.58;;
44366;SDS011;30086;57.660;12.000;2023-09-30T07:18:48;15.73;;;3.03;;
44366;SDS011;30086;57.660;12.000;2023-09-30T07:21:15;5.05;;;1.05;;
44366;SDS011;30086;57.660;12.000;2023-09-30T07:23:42;14.68;;;2.28;;
44366;SDS011;30086;57.660;12.000;2023-09-30T07:26:08;19.65;;;4.22;;
44366;SDS011;30086;57.660;12.000;2023-09-30T07:28:34;18.65;;;3.90;;
44366;SDS011;30086;57.660;12.000;2023-09-30T07:31:00;25.10;;;3.13;;
44366;SDS011;30086;57.660;12.000;2023-09-30T07:33:26;14.10;;;3.10;;
44366;SDS011;30086;57.660;12.000;2023-09-30T07:35:52;7.82;;;1.75;;
44366;SDS011;30086;57.660;12.000;2023-09-30T07:38:20;11.77;;;2.97;;
44366;SDS011;30086;57.660;12.000;2023-09-30T07:40:47;18.73;;;2.80;;
44366;SDS011;30086;57.660;12.000;2023-09-30T07:43:19;16.40;;;2.78;;
44366;SDS011;30086;57.660;12.000;2023-09-30T07:45:45;11.88;;;2.58;;
44366;SDS011;30086;57.660;12.000;2023-09-30T07:48:11;10.43;;;2.25;;
44366;SDS011;30086;57.660;12.000;2023-09-30T07:50:39;16.17;;;2.33;;
44366;SDS011;30086;57.660;12.000;2023-09-30T07:53:07;10.70;;;2.88;;
44366;SDS011;30086;57.660;12.000;2023-09-30T07:55:34;15.10;;;3.53;;
44366;SDS011;30086;57.660;12.000;2023-09-30T07:58:02;15.55;;;3.25;;
44366;SDS011;30086;57.660;12.000;2023-09-30T08:00:28;15.75;;;3.58;;
44366;SDS011;30086;57.660;12.000;2023-09-30T08:02:54;16.45;;;3.47;;
44366;SDS011;30086;57.660;12.000;2023-09-30T08:05:22;21.13;;;2.90;;
44366;SDS011;30086;57.660;12.000;2023-09-30T08:07:48;11.23;;;3.20;;
44366;SDS011;30086;57.660;12.000;2023-09-30T08:10:16;14.88;;;3.50;;
44366;SDS011;30086;57.660;12.000;2023-09-30T08:12:43;12.55;;;3.10;;
44366;SDS011;30086;57.660;12.000;2023-09-30T08:15:14;12.45;;;2.03;;
44366;SDS011;30086;57.660;12.000;2023-09-30T08:17:40;15.70;;;3.00;;
44366;SDS011;30086;57.660;12.000;2023-09-30T08:20:07;11.20;;;2.28;;
44366;SDS011;30086;57.660;12.000;2023-09-30T08:22:37;8.75;;;1.90;;
44366;SDS011;30086;57.660;12.000;2023-09-30T08:25:04;19.63;;;3.90;;
44366;SDS011;30086;57.660;12.000;2023-09-30T08:27:31;18.17;;;3.65;;
44366;SDS011;30086;57.660;12.000;2023-09-30T08:29:57;10.98;;;2.80;;
44366;SDS011;30086;57.660;12.000;2023-09-30T08:32:23;14.55;;;3.88;;
44366;SDS011;30086;57.660;12.000;2023-09-30T08:34:49;21.42;;;4.70;;
44366;SDS011;30086;57.660;12.000;2023-09-30T08:37:15;18.55;;;3.78;;
44366;SDS011;30086;57.660;12.000;2023-09-30T08:39:41;20.38;;;4.15;;
44366;SDS011;30086;57.660;12.000;2023-09-30T08:42:10;11.40;;;3.22;;
44366;SDS011;30086;57.660;12.000;2023-09-30T08:44:40;18.23;;;3.35;;
44366;SDS011;30086;57.660;12.000;2023-09-30T08:47:07;15.73;;;2.83;;
44366;SDS011;30086;57.660;12.000;2023-09-30T08:49:36;16.98;;;3.08;;
44366;SDS011;30086;57.660;12.000;2023-09-30T08:52:04;17.77;;;3.53;;
44366;SDS011;30086;57.660;12.000;2023-09-30T08:54:31;9.25;;;2.53;;
44366;SDS011;30086;57.660;12.000;2023-09-30T08:56:57;15.38;;;5.00;;
44366;SDS011;30086;57.660;12.000;2023-09-30T08:59:26;13.93;;;3.30;;
44366;SDS011;30086;57.660;12.000;2023-09-30T09:01:53;20.60;;;2.25;;
44366;SDS011;30086;57.660;12.000;2023-09-30T09:04:19;14.20;;;2.40;;
44366;SDS011;30086;57.660;12.000;2023-09-30T09:06:45;7.18;;;1.77;;
44366;SDS011;30086;57.660;12.000;2023-09-30T09:09:16;7.57;;;1.40;;
44366;SDS011;30086;57.660;12.000;2023-09-30T09:11:42;11.57;;;3.22;;
44366;SDS011;30086;57.660;12.000;2023-09-30T09:14:09;19.13;;;3.80;;
44366;SDS011;30086;57.660;12.000;2023-09-30T09:16:35;17.33;;;4.68;;
44366;SDS011;30086;57.660;12.000;2023-09-30T09:19:14;15.27;;;3.85;;
44366;SDS011;30086;57.660;12.000;2023-09-30T09:21:57;9.20;;;1.90;;
44366;SDS011;30086;57.660;12.000;2023-09-30T09:24:27;12.70;;;2.58;;
44366;SDS011;30086;57.660;12.000;2023-09-30T09:26:54;13.13;;;2.20;;
44366;SDS011;30086;57.660;12.000;2023-09-30T09:29:29;12.20;;;2.30;;
44366;SDS011;30086;57.660;12.000;2023-09-30T09:32:06;15.13;;;3.45;;
44366;SDS011;30086;57.660;12.000;2023-09-30T09:34:59;14.52;;;2.10;;
44366;SDS011;30086;57.660;12.000;2023-09-30T09:37:28;14.90;;;2.63;;
44366;SDS011;30086;57.660;12.000;2023-09-30T09:39:59;16.48;;;3.70;;
44366;SDS011;30086;57.660;12.000;2023-09-30T09:42:31;11.63;;;3.15;;
44366;SDS011;30086;57.660;12.000;2023-09-30T09:45:02;15.77;;;3.15;;
44366;SDS011;30086;57.660;12.000;2023-09-30T09:47:31;14.15;;;3.45;;
44366;SDS011;30086;57.660;12.000;2023-09-30T09:50:15;16.05;;;3.55;;
44366;SDS011;30086;57.660;12.000;2023-09-30T09:52:41;18.45;;;3.47;;
44366;SDS011;30086;57.660;12.000;2023-09-30T09:55:10;14.68;;;3.67;;
44366;SDS011;30086;57.660;12.000;2023-09-30T09:57:37;11.25;;;2.85;;
44366;SDS011;30086;57.660;12.000;2023-09-30T10:00:06;18.83;;;3.70;;
44366;SDS011;30086;57.660;12.000;2023-09-30T10:02:40;22.08;;;3.28;;
44366;SDS011;30086;57.660;12.000;2023-09-30T10:05:06;22.15;;;4.78;;
44366;SDS011;30086;57.660;12.000;2023-09-30T10:07:37;27.92;;;5.25;;
44366;SDS011;30086;57.660;12.000;2023-09-30T10:10:08;20.83;;;3.42;;
44366;SDS011;30086;57.660;12.000;2023-09-30T10:12:39;22.02;;;5.20;;
44366;SDS011;30086;57.660;12.000;2023-09-30T10:20:38;20.27;;;4.25;;
44366;SDS011;30086;57.660;12.000;2023-09-30T10:25:53;6.22;;;1.70;;
44366;SDS011;30086;57.660;12.000;2023-09-30T10:28:35;18.88;;;3.20;;
44366;SDS011;30086;57.660;12.000;2023-09-30T10:31:19;24.02;;;4.45;;
44366;SDS011;30086;57.660;12.000;2023-09-30T10:36:32;8.18;;;2.22;;
44366;SDS011;30086;57.660;12.000;2023-09-30T10:38:58;16.65;;;4.78;;
44366;SDS011;30086;57.660;12.000;2023-09-30T10:46:51;19.98;;;4.10;;
44366;SDS011;30086;57.660;12.000;2023-09-30T10:51:56;12.65;;;2.72;;
44366;SDS011;30086;57.660;12.000;2023-09-30T10:54:27;9.00;;;2.75;;
44366;SDS011;30086;57.660;12.000;2023-09-30T10:56:53;17.02;;;3.85;;
44366;SDS011;30086;57.660;12.000;2023-09-30T10:59:21;18.33;;;4.07;;
44366;SDS011;30086;57.660;12.000;2023-09-30T11:01:47;15.93;;;3.15;;
44366;SDS011;30086;57.660;12.000;2023-09-30T11:04:13;18.77;;;4.55;;
44366;SDS011;30086;57.660;12.000;2023-09-30T11:06:40;28.92;;;5.93;;
44366;SDS011;30086;57.660;12.000;2023-09-30T11:09:07;22.48;;;5.97;;
44366;SDS011;30086;57.660;12.000;2023-09-30T11:11:41;34.40;;;7.50;;
44366;SDS011;30086;57.660;12.000;2023-09-30T11:14:24;22.20;;;5.40;;
44366;SDS011;30086;57.660;12.000;2023-09-30T11:16:51;18.77;;;3.50;;
44366;SDS011;30086;57.660;12.000;2023-09-30T11:19:18;26.52;;;6.22;;
44366;SDS011;30086;57.660;12.000;2023-09-30T11:21:48;24.63;;;5.57;;
44366;SDS011;30086;57.660;12.000;2023-09-30T11:24:15;25.55;;;5.30;;
44366;SDS011;30086;57.660;12.000;2023-09-30T11:26:41;13.77;;;2.95;;
44366;SDS011;30086;57.660;12.000;2023-09-30T11:29:11;15.10;;;2.78;;
44366;SDS011;30086;57.660;12.000;2023-09-30T11:31:41;19.90;;;3.92;;
44366;SDS011;30086;57.660;12.000;2023-09-30T11:34:08;7.65;;;2.42;;
44366;SDS011;30086;57.660;12.000;2023-09-30T11:36:36;12.68;;;2.80;;
44366;SDS011;30086;57.660;12.000;2023-09-30T11:39:03;16.15;;;4.53;;
44366;SDS011;30086;57.660;12.000;2023-09-30T11:41:34;12.75;;;3.53;;
44366;SDS011;30086;57.660;12.000;2023-09-30T11:44:04;11.20;;;2.55;;
44366;SDS011;30086;57.660;12.000;2023-09-30T11:49:04;13.82;;;3.33;;
44366;SDS011;30086;57.660;12.000;2023-09-30T11:51:51;26.90;;;4.60;;
44366;SDS011;30086;57.660;12.000;2023-09-30T11:54:18;20.13;;;5.18;;
44366;SDS011;30086;57.660;12.000;2023-09-30T11:56:44;17.60;;;4.55;;
44366;SDS011;30086;57.660;12.000;2023-09-30T11:59:13;22.35;;;5.57;;
44366;SDS011;30086;57.660;12.000;2023-09-30T12:01:40;20.45;;;4.78;;
44366;SDS011;30086;57.660;12.000;2023-09-30T12:04:06;21.30;;;4.10;;
44366;SDS011;30086;57.660;12.000;2023-09-30T12:06:37;17.20;;;3.78;;
44366;SDS011;30086;57.660;12.000;2023-09-30T12:09:03;16.13;;;4.53;;
44366;SDS011;30086;57.660;12.000;2023-09-30T12:11:31;18.95;;;4.40;;
44366;SDS011;30086;57.660;12.000;2023-09-30T12:14:00;22.35;;;5.65;;
44366;SDS011;30086;57.660;12.000;2023-09-30T12:16:27;21.80;;;4.00;;
44366;SDS011;30086;57.660;12.000;2023-09-30T12:18:53;32.60;;;4.47;;
44366;SDS011;30086;57.660;12.000;2023-09-30T12:21:21;22.13;;;4.35;;
44366;SDS011;30086;57.660;12.000;2023-09-30T12:23:50;23.65;;;5.63;;
44366;SDS011;30086;57.660;12.000;2023-09-30T12:26:16;20.85;;;4.72;;
44366;SDS011;30086;57.660;12.000;2023-09-30T12:28:45;24.77;;;5.43;;
44366;SDS011;30086;57.660;12.000;2023-09-30T12:31:13;14.20;;;2.55;;
44366;SDS011;30086;57.660;12.000;2023-09-30T12:34:00;18.13;;;3.80;;
44366;SDS011;30086;57.660;12.000;2023-09-30T12:36:56;23.85;;;5.75;;
44366;SDS011;30086;57.660;12.000;2023-09-30T12:39:22;25.02;;;4.85;;
44366;SDS011;30086;57.660;12.000;2023-09-30T12:41:49;18.90;;;5.90;;
44366;SDS011;30086;57.660;12.000;2023-09-30T12:44:15;22.10;;;4.60;;
44366;SDS011;30086;57.660;12.000;2023-09-30T12:46:42;25.58;;;4.68;;
44366;SDS011;30086;57.660;12.000;2023-09-30T12:49:14;29.83;;;6.50;;
44366;SDS011;30086;57.660;12.000;2023-09-30T12:51:40;20.48;;;3.90;;
44366;SDS011;30086;57.660;12.000;2023-09-30T12:54:06;19.00;;;4.90;;
44366;SDS011;30086;57.660;12.000;2023-09-30T12:56:33;25.17;;;5.47;;
44366;SDS011;30086;57.660;12.000;2023-09-30T12:58:59;15.77;;;2.35;;
44366;SDS011;30086;57.660;12.000;2023-09-30T13:01:27;10.05;;;2.58;;
44366;SDS011;30086;57.660;12.000;2023-09-30T13:03:53;20.77;;;4.70;;
44366;SDS011;30086;57.660;12.000;2023-09-30T13:06:19;17.60;;;2.83;;
44366;SDS011;30086;57.660;12.000;2023-09-30T13:08:47;19.95;;;4.53;;
44366;SDS011;30086;57.660;12.000;2023-09-30T13:11:14;14.20;;;3.10;;
44366;SDS011;30086;57.660;12.000;2023-09-30T13:13:40;27.08;;;3.97;;
44366;SDS011;30086;57.660;12.000;2023-09-30T13:16:06;20.50;;;6.90;;
44366;SDS011;30086;57.660;12.000;2023-09-30T13:18:33;30.73;;;4.75;;
44366;SDS011;30086;57.660;12.000;2023-09-30T13:20:59;12.07;;;2.72;;
44366;SDS011;30086;57.660;12.000;2023-09-30T13:23:25;20.20;;;4.22;;
44366;SDS011;30086;57.660;12.000;2023-09-30T13:25:52;25.80;;;6.65;;
44366;SDS011;30086;57.660;12.000;2023-09-30T13:28:22;18.25;;;4.22;;
44366;SDS011;30086;57.660;12.000;2023-09-30T13:30:53;21.90;;;5.20;;
44366;SDS011;30086;57.660;12.000;2023-09-30T13:33:21;11.60;;;3.97;;
44366;SDS011;30086;57.660;12.000;2023-09-30T13:35:47;17.08;;;3.15;;
44366;SDS011;30086;57.660;12.000;2023-09-30T13:38:13;23.13;;;4.32;;
44366;SDS011;30086;57.660;12.000;2023-09-30T13:40:41;9.63;;;2.47;;
44366;SDS011;30086;57.660;12.000;2023-09-30T13:43:07;12.05;;;2.85;;
44366;SDS011;30086;57.660;12.000;2023-09-30T13:45:34;6.60;;;2.03;;
44366;SDS011;30086;57.660;12.000;2023-09-30T13:48:03;17.40;;;4.93;;
44366;SDS011;30086;57.660;12.000;2023-09-30T13:50:30;19.30;;;5.32;;
44366;SDS011;30086;57.660;12.000;2023-09-30T13:52:56;22.10;;;3.15;;
44366;SDS011;30086;57.660;12.000;2023-09-30T13:55:26;18.77;;;4.13;;
44366;SDS011;30086;57.660;12.000;2023-09-30T13:57:52;22.02;;;3.10;;
44366;SDS011;30086;57.660;12.000;2023-09-30T14:00:18;21.60;;;4.30;;
44366;SDS011;30086;57.660;12.000;2023-09-30T14:02:44;10.32;;;2.47;;
44366;SDS011;30086;57.660;12.000;2023-09-30T14:05:10;10.55;;;2.38;;
44366;SDS011;30086;57.660;12.000;2023-09-30T14:07:38;22.25;;;4.28;;
44366;SDS011;30086;57.660;12.000;2023-09-30T14:10:10;15.68;;;3.50;;
44366;SDS011;30086;57.660;12.000;2023-09-30T14:12:36;20.00;;;4.22;;
44366;SDS011;30086;57.660;12.000;2023-09-30T14:15:03;15.93;;;2.63;;
44366;SDS011;30086;57.660;12.000;2023-09-30T14:17:30;9.00;;;2.67;;
44366;SDS011;30086;57.660;12.000;2023-09-30T14:20:00;19.35;;;3.97;;
44366;SDS011;30086;57.660;12.000;2023-09-30T14:22:26;19.42;;;4.15;;
44366;SDS011;30086;57.660;12.000;2023-09-30T14:24:54;23.30;;;4.00;;
44366;SDS011;30086;57.660;12.000;2023-09-30T14:27:23;22.98;;;5.15;;
44366;SDS011;30086;57.660;12.000;2023-09-30T14:29:51;14.90;;;4.60;;
44366;SDS011;30086;57.660;12.000;2023-09-30T14:32:17;12.60;;;3.33;;
44366;SDS011;30086;57.660;12.000;2023-09-30T14:34:46;14.05;;;3.58;;
44366;SDS011;30086;57.660;12.000;2023-09-30T14:37:37;12.95;;;2.50;;
44366;SDS011;30086;57.660;12.000;2023-09-30T14:40:13;19.13;;;4.65;;
44366;SDS011;30086;57.660;12.000;2023-09-30T14:42:42;8.95;;;2.25;;
44366;SDS011;30086;57.660;12.000;2023-09-30T14:45:08;21.35;;;4.25;;
44366;SDS011;30086;57.660;12.000;2023-09-30T14:47:37;9.68;;;1.85;;
44366;SDS011;30086;57.660;12.000;2023-09-30T14:50:08;14.32;;;4.68;;